Time;durP1;ratioP1;P1;durP2;ratioP2;P2;SDS_P1;SDS_P2;PMS_P1;PMS_P2;Temp;Humidity;BMP_temperature;BMP_pressure;BME280_temperature;BME280_humidity;BME280_pressure;Samples;Min_cycle;Max_cycle;Signal;HPM_P1;HPM_P2
2023/06/21 00:01:55;;;;;;;12.07;11.07;;;18.10;99.90;;;;;;480180;246;28862;-77
2023/06/21 00:09:13;;;;;;;10.33;9.30;;;18.00;99.90;;;;;;480400;242;28785;-75
2023/06/21 00:11:14;;;;;;;9.80;8.70;;;17.80;99.90;;;;;;480384;246;28914;-76
2023/06/21 00:13:15;;;;;;;9.90;8.43;;;17.90;99.90;;;;;;480308;247;29508;-78
2023/06/21 00:15:17;;;;;;;10.73;9.63;;;17.90;99.90;;;;;;480267;246;29316;-75
2023/06/21 00:17:18;;;;;;;10.43;9.33;;;17.80;99.90;;;;;;480398;246;29397;-76
2023/06/21 00:19:19;;;;;;;9.93;8.93;;;17.90;99.90;;;;;;480077;246;28902;-77
2023/06/21 00:21:20;;;;;;;12.67;9.90;;;17.90;99.90;;;;;;480343;246;28879;-75
2023/06/21 00:23:22;;;;;;;11.40;9.03;;;17.90;99.90;;;;;;480372;246;28885;-77
2023/06/21 00:25:24;;;;;;;8.93;8.13;;;17.80;99.90;;;;;;480386;246;28943;-77
2023/06/21 00:27:25;;;;;;;11.47;8.30;;;17.90;99.90;;;;;;480363;246;28895;-77
2023/06/21 00:29:26;;;;;;;9.60;8.60;;;17.90;99.90;;;;;;480367;246;28864;-75
2023/06/21 00:31:27;;;;;;;11.20;9.07;;;17.90;99.90;;;;;;480350;246;28980;-76
2023/06/21 00:33:28;;;;;;;9.37;8.33;;;17.90;99.90;;;;;;480336;246;28952;-76
2023/06/21 00:35:29;;;;;;;10.13;8.83;;;17.90;99.90;;;;;;480383;246;29311;-76
2023/06/21 00:37:31;;;;;;;9.50;8.60;;;17.90;99.90;;;;;;480406;246;29355;-77
2023/06/21 00:39:32;;;;;;;9.70;8.80;;;17.80;99.90;;;;;;480511;246;29322;-77
2023/06/21 00:41:33;;;;;;;9.30;8.10;;;17.60;99.90;;;;;;480487;247;28920;-77
2023/06/21 00:43:34;;;;;;;9.03;8.13;;;17.70;99.90;;;;;;480318;242;28964;-77
2023/06/21 00:45:39;;;;;;;10.73;9.03;;;17.70;99.90;;;;;;480369;246;28868;-77
2023/06/21 00:47:40;;;;;;;10.87;9.77;;;17.70;99.90;;;;;;480139;247;28933;-76
2023/06/21 00:49:38;;;;;;;12.20;9.97;;;17.60;99.90;;;;;;480176;247;28931;-76
2023/06/21 00:51:40;;;;;;;11.10;10.00;;;17.50;99.90;;;;;;480291;246;28898;-77
2023/06/21 00:53:41;;;;;;;10.63;9.57;;;17.50;99.90;;;;;;480310;246;30094;-76
2023/06/21 00:55:42;;;;;;;10.13;9.20;;;17.50;99.90;;;;;;480360;246;29318;-77
2023/06/21 00:57:44;;;;;;;8.73;7.93;;;17.50;99.90;;;;;;480480;246;28847;-77
2023/06/21 00:59:44;;;;;;;12.03;10.17;;;17.50;99.90;;;;;;480617;246;28893;-77
2023/06/21 01:01:46;;;;;;;12.23;9.23;;;17.50;99.90;;;;;;480554;246;28986;-77
2023/06/21 01:03:47;;;;;;;12.07;10.20;;;17.30;99.90;;;;;;480333;246;28930;-77
2023/06/21 01:05:52;;;;;;;9.50;8.60;;;17.30;99.90;;;;;;480370;246;28900;-76
2023/06/21 01:07:49;;;;;;;10.83;9.67;;;17.30;99.90;;;;;;480323;247;28937;-78
2023/06/21 01:09:51;;;;;;;10.97;8.53;;;17.30;99.90;;;;;;480489;246;28855;-76
2023/06/21 01:11:52;;;;;;;10.53;9.40;;;17.40;99.90;;;;;;480463;246;29422;-77
2023/06/21 01:13:54;;;;;;;8.87;8.00;;;17.50;99.90;;;;;;480384;246;29299;-77
2023/06/21 01:15:54;;;;;;;10.23;8.60;;;17.40;99.90;;;;;;480352;246;29008;-76
2023/06/21 01:17:56;;;;;;;9.43;8.17;;;17.50;99.90;;;;;;480464;246;28890;-77
2023/06/21 01:19:57;;;;;;;9.87;8.67;;;17.50;99.90;;;;;;480498;242;28928;-75
2023/06/21 01:21:58;;;;;;;9.23;8.33;;;17.40;99.90;;;;;;480420;246;28903;-76
2023/06/21 01:23:59;;;;;;;13.57;8.97;;;17.40;99.90;;;;;;480386;246;28906;-76
2023/06/21 01:26:01;;;;;;;9.70;8.70;;;17.40;99.90;;;;;;480380;246;28898;-77
2023/06/21 01:28:02;;;;;;;13.93;8.80;;;17.40;99.90;;;;;;480450;246;28901;-77
2023/06/21 01:30:03;;;;;;;10.00;9.00;;;17.40;99.90;;;;;;480493;243;28855;-76
2023/06/21 01:32:04;;;;;;;12.60;8.60;;;17.30;99.90;;;;;;480439;246;29369;-76
2023/06/21 01:34:08;;;;;;;10.10;8.23;;;17.30;99.90;;;;;;480419;246;29326;-77
2023/06/21 01:36:07;;;;;;;8.90;8.00;;;17.40;99.90;;;;;;480199;247;28890;-77
2023/06/21 01:38:08;;;;;;;11.40;9.00;;;17.40;99.90;;;;;;480376;246;28988;-76
2023/06/21 01:40:11;;;;;;;8.37;7.63;;;17.40;99.90;;;;;;480343;246;28867;-77
2023/06/21 01:42:11;;;;;;;8.73;7.83;;;17.40;99.90;;;;;;480264;247;28889;-76
2023/06/21 01:44:13;;;;;;;10.00;8.97;;;17.40;99.90;;;;;;480341;246;28899;-76
2023/06/21 01:46:13;;;;;;;8.43;7.63;;;17.40;99.90;;;;;;480288;242;28888;-76
2023/06/21 01:48:15;;;;;;;9.70;8.70;;;17.30;99.90;;;;;;480325;246;29392;-77
2023/06/21 01:50:16;;;;;;;8.90;8.00;;;17.30;99.90;;;;;;480333;246;29322;-76
2023/06/21 01:52:17;;;;;;;9.00;8.20;;;17.30;99.90;;;;;;480371;246;29459;-76
2023/06/21 01:54:20;;;;;;;9.50;8.50;;;17.40;99.90;;;;;;480405;246;29573;-76
2023/06/21 01:56:19;;;;;;;10.50;8.00;;;17.40;99.90;;;;;;480315;247;28975;-76
2023/06/21 01:58:21;;;;;;;9.90;8.37;;;17.40;99.90;;;;;;480348;247;28918;-77
2023/06/21 02:00:22;;;;;;;8.03;7.33;;;17.40;99.90;;;;;;480340;246;28931;-76
2023/06/21 02:02:23;;;;;;;11.13;7.60;;;17.50;99.90;;;;;;480378;246;28911;-77
2023/06/21 02:04:24;;;;;;;10.63;8.23;;;17.50;99.90;;;;;;480433;246;28911;-76
2023/06/21 02:06:26;;;;;;;9.27;8.23;;;17.40;99.90;;;;;;480422;246;29024;-77
2023/06/21 02:08:27;;;;;;;9.30;8.40;;;17.40;99.90;;;;;;480443;246;29397;-77
2023/06/21 02:10:29;;;;;;;9.60;8.70;;;17.50;99.90;;;;;;480467;246;29392;-76
2023/06/21 02:12:29;;;;;;;9.37;8.47;;;17.30;99.90;;;;;;480357;247;29379;-77
2023/06/21 02:14:31;;;;;;;8.93;8.03;;;17.30;99.90;;;;;;480395;246;29308;-76
2023/06/21 02:16:32;;;;;;;10.20;8.23;;;17.20;99.90;;;;;;480391;246;28964;-78
2023/06/21 02:18:34;;;;;;;9.77;8.77;;;17.30;99.90;;;;;;480389;242;28978;-77
2023/06/21 02:23:00;;;;;;;7.80;7.10;;;17.40;99.90;;;;;;480416;247;29360;-78
2023/06/21 02:25:01;;;;;;;8.10;7.30;;;17.50;99.90;;;;;;480417;246;29276;-76
2023/06/21 02:27:02;;;;;;;10.07;8.23;;;17.50;99.90;;;;;;480420;246;28963;-76
2023/06/21 02:29:04;;;;;;;9.37;8.37;;;17.50;99.90;;;;;;480368;246;28918;-77
2023/06/21 02:31:05;;;;;;;10.10;7.63;;;17.50;99.90;;;;;;480381;246;28891;-76
2023/06/21 02:33:07;;;;;;;8.67;7.77;;;17.50;99.90;;;;;;480409;246;28892;-76
2023/06/21 02:35:09;;;;;;;7.80;7.00;;;17.50;99.90;;;;;;480399;246;28860;-77
2023/06/21 02:37:11;;;;;;;9.60;8.53;;;17.60;99.90;;;;;;480309;247;28882;-76
2023/06/21 02:39:10;;;;;;;10.37;9.00;;;17.40;99.90;;;;;;480176;247;29046;-78
2023/06/21 02:41:11;;;;;;;9.83;8.83;;;17.50;99.90;;;;;;480374;246;29311;-76
2023/06/21 02:43:12;;;;;;;10.10;8.50;;;17.40;99.90;;;;;;480435;246;29400;-77
2023/06/21 02:45:14;;;;;;;9.80;8.60;;;17.40;99.90;;;;;;480450;243;29286;-76
2023/06/21 02:47:15;;;;;;;10.53;8.33;;;17.50;99.90;;;;;;480403;246;28950;-75
2023/06/21 02:49:16;;;;;;;8.50;7.33;;;17.60;99.90;;;;;;480401;246;28931;-76
2023/06/21 02:51:20;;;;;;;10.03;8.13;;;17.70;99.90;;;;;;480395;242;28845;-77
2023/06/21 02:53:19;;;;;;;9.30;7.87;;;17.70;99.90;;;;;;480213;247;28890;-77
2023/06/21 02:55:20;;;;;;;8.80;7.67;;;17.70;99.90;;;;;;480399;246;28849;-77
2023/06/21 02:57:21;;;;;;;11.73;7.57;;;17.80;99.90;;;;;;480363;247;28900;-76
2023/06/21 02:59:22;;;;;;;9.27;7.87;;;17.90;99.90;;;;;;480424;246;28964;-76
2023/06/21 03:01:24;;;;;;;10.73;7.43;;;17.70;99.90;;;;;;480425;246;29468;-76
2023/06/21 03:03:25;;;;;;;8.20;7.40;;;17.70;99.90;;;;;;480441;246;29391;-77
2023/06/21 03:05:26;;;;;;;12.30;8.10;;;17.70;99.90;;;;;;480398;246;29328;-77
2023/06/21 03:07:27;;;;;;;9.03;8.07;;;17.70;99.90;;;;;;480380;246;28966;-75
2023/06/21 03:09:29;;;;;;;10.97;8.23;;;17.70;99.90;;;;;;480340;246;28900;-76
2023/06/21 03:11:30;;;;;;;8.70;7.63;;;17.60;99.90;;;;;;480402;246;28851;-77
2023/06/21 03:13:31;;;;;;;10.10;7.87;;;17.70;99.90;;;;;;480438;246;28892;-77
2023/06/21 03:15:32;;;;;;;8.47;7.67;;;17.60;99.90;;;;;;480423;246;28843;-76
2023/06/21 03:17:34;;;;;;;8.27;7.47;;;17.60;99.90;;;;;;480355;246;28940;-76
2023/06/21 03:19:35;;;;;;;9.50;7.90;;;17.70;99.90;;;;;;480317;246;28884;-76
2023/06/21 03:21:36;;;;;;;8.00;7.20;;;17.80;99.90;;;;;;480374;246;28877;-76
2023/06/21 03:23:38;;;;;;;7.60;6.87;;;17.80;99.90;;;;;;480437;246;29372;-76
2023/06/21 03:25:41;;;;;;;7.00;6.00;;;17.80;99.90;;;;;;480407;246;28858;-77
2023/06/21 03:27:40;;;;;;;9.20;8.30;;;17.90;99.90;;;;;;480199;247;29347;-77
2023/06/21 03:29:41;;;;;;;8.27;7.27;;;17.90;99.90;;;;;;480307;247;29331;-76
2023/06/21 03:31:42;;;;;;;9.30;7.37;;;17.90;99.90;;;;;;480362;246;28889;-76
2023/06/21 03:33:44;;;;;;;7.90;7.20;;;17.90;99.90;;;;;;480422;246;28968;-77
2023/06/21 03:35:46;;;;;;;9.07;7.97;;;18.00;99.90;;;;;;480396;246;28988;-77
2023/06/21 03:37:46;;;;;;;8.60;7.70;;;18.00;99.90;;;;;;480317;247;28920;-78
2023/06/21 03:39:48;;;;;;;8.20;7.40;;;18.10;99.90;;;;;;480360;247;28929;-77
2023/06/21 03:41:49;;;;;;;8.20;7.30;;;18.00;99.90;;;;;;480366;246;28877;-77
2023/06/21 03:43:50;;;;;;;8.47;7.57;;;18.00;99.90;;;;;;480377;246;28949;-76
2023/06/21 03:45:51;;;;;;;8.67;7.13;;;17.90;99.90;;;;;;480374;246;29333;-76
2023/06/21 03:47:53;;;;;;;9.43;7.47;;;17.90;99.90;;;;;;480360;246;29484;-77
2023/06/21 03:49:57;;;;;;;8.13;7.33;;;17.90;99.90;;;;;;480339;246;29331;-77
2023/06/21 03:51:55;;;;;;;8.47;7.50;;;17.90;99.90;;;;;;480130;247;29383;-77
2023/06/21 03:53:56;;;;;;;9.57;8.17;;;17.80;99.90;;;;;;480414;246;28902;-76
2023/06/21 03:55:58;;;;;;;15.13;9.10;;;17.80;99.90;;;;;;480400;242;28859;-76
2023/06/21 03:57:59;;;;;;;10.47;7.83;;;17.80;99.90;;;;;;480368;246;28974;-77
2023/06/21 04:00:00;;;;;;;9.03;7.67;;;17.70;99.90;;;;;;480367;246;28920;-76
2023/06/21 04:02:01;;;;;;;12.03;9.33;;;17.70;99.90;;;;;;480363;242;28976;-76
2023/06/21 04:04:03;;;;;;;8.67;7.67;;;17.70;99.90;;;;;;480389;246;29291;-77
2023/06/21 04:06:04;;;;;;;13.90;9.27;;;17.80;99.90;;;;;;480369;246;28860;-76
2023/06/21 04:08:05;;;;;;;8.93;8.03;;;17.80;99.90;;;;;;480402;246;29344;-76
2023/06/21 04:10:08;;;;;;;10.13;7.60;;;17.70;99.90;;;;;;480365;242;29304;-76
2023/06/21 04:12:08;;;;;;;9.50;7.20;;;17.70;99.90;;;;;;480086;246;29368;-75
2023/06/21 04:14:09;;;;;;;8.23;7.40;;;17.80;99.90;;;;;;480398;246;28905;-78
2023/06/21 04:16:10;;;;;;;9.10;7.57;;;17.90;99.90;;;;;;480390;247;28935;-75
2023/06/21 04:18:11;;;;;;;9.80;8.60;;;18.00;99.90;;;;;;480337;246;28904;-77
2023/06/21 04:20:14;;;;;;;10.63;8.50;;;18.00;99.90;;;;;;480252;246;28936;-76
2023/06/21 04:22:14;;;;;;;12.10;8.20;;;17.90;99.90;;;;;;480235;242;28875;-76
2023/06/21 04:24:15;;;;;;;10.53;9.00;;;17.80;99.90;;;;;;480406;246;29437;-76
2023/06/21 04:26:16;;;;;;;8.40;7.53;;;17.80;99.90;;;;;;480356;246;29334;-76
2023/06/21 04:28:18;;;;;;;8.10;7.23;;;17.90;99.90;;;;;;480335;246;29368;-77
2023/06/21 04:30:19;;;;;;;8.40;7.50;;;18.00;99.90;;;;;;480303;246;29840;-76
2023/06/21 04:32:20;;;;;;;7.73;6.83;;;18.10;99.90;;;;;;480359;246;28865;-77
2023/06/21 04:34:21;;;;;;;11.47;8.00;;;18.10;99.90;;;;;;480393;246;28987;-78
2023/06/21 04:36:24;;;;;;;8.43;7.50;;;18.20;99.90;;;;;;480383;246;28836;-76
2023/06/21 04:38:24;;;;;;;9.20;7.23;;;18.20;99.90;;;;;;480395;246;28880;-77
2023/06/21 04:40:25;;;;;;;7.40;6.73;;;18.20;99.90;;;;;;480536;246;28953;-77
2023/06/21 04:42:26;;;;;;;7.90;7.10;;;18.10;99.90;;;;;;480460;242;28887;-76
2023/06/21 04:44:31;;;;;;;7.93;7.13;;;18.10;99.90;;;;;;480424;246;28885;-78
2023/06/21 04:46:35;;;;;;;8.03;7.33;;;18.10;99.90;;;;;;480438;246;28881;-78
2023/06/21 04:48:33;;;;;;;10.40;8.03;;;18.10;99.90;;;;;;487186;242;28750;-76
2023/06/21 04:50:34;;;;;;;8.17;7.20;;;18.00;99.90;;;;;;489176;243;29255;-77
2023/06/21 04:52:37;;;;;;;8.83;7.73;;;18.00;99.90;;;;;;486529;243;28833;-77
2023/06/21 04:54:37;;;;;;;9.20;8.30;;;18.10;99.90;;;;;;481390;245;28893;-77
2023/06/21 04:56:38;;;;;;;8.23;7.43;;;18.10;99.90;;;;;;481551;245;28932;-77
2023/06/21 04:58:39;;;;;;;9.10;8.20;;;18.10;99.90;;;;;;489003;242;28870;-76
2023/06/21 05:00:41;;;;;;;9.17;7.97;;;18.20;99.90;;;;;;490526;241;28810;-78
2023/06/21 05:02:42;;;;;;;10.57;7.80;;;18.30;99.90;;;;;;485751;241;28904;-76
2023/06/21 05:04:43;;;;;;;9.20;8.20;;;18.30;99.90;;;;;;476741;249;29488;-77
2023/06/21 05:06:44;;;;;;;7.70;7.00;;;18.40;99.90;;;;;;476822;245;29295;-77
2023/06/21 05:08:46;;;;;;;13.50;7.40;;;18.50;99.90;;;;;;480873;242;28803;-76
2023/06/21 05:10:47;;;;;;;8.30;7.40;;;18.60;99.90;;;;;;481449;245;29101;-77
2023/06/21 05:12:48;;;;;;;8.87;7.20;;;18.70;99.90;;;;;;481508;245;28846;-76
2023/06/21 05:14:49;;;;;;;11.50;7.60;;;18.80;99.90;;;;;;481640;245;28852;-76
2023/06/21 05:16:51;;;;;;;8.20;6.87;;;18.90;99.90;;;;;;481678;245;28906;-76
2023/06/21 05:18:52;;;;;;;10.00;7.67;;;19.00;99.90;;;;;;481616;245;28844;-76
2023/06/21 05:20:53;;;;;;;10.03;6.80;;;19.10;99.90;;;;;;481628;245;28898;-77
2023/06/21 05:22:54;;;;;;;7.83;7.13;;;19.20;99.90;;;;;;481620;245;30169;-76
2023/06/21 05:24:56;;;;;;;7.50;6.70;;;19.40;99.90;;;;;;481612;245;29368;-76
2023/06/21 05:26:57;;;;;;;7.70;6.43;;;19.40;99.90;;;;;;481644;245;29461;-77
2023/06/21 05:28:58;;;;;;;7.30;6.60;;;19.60;99.90;;;;;;481634;245;28841;-76
2023/06/21 05:31:00;;;;;;;9.03;6.87;;;19.70;99.90;;;;;;481605;245;28896;-77
2023/06/21 05:33:01;;;;;;;6.93;6.30;;;19.80;99.90;;;;;;481604;245;28882;-76
2023/06/21 05:35:02;;;;;;;13.70;7.33;;;19.90;99.90;;;;;;481630;245;28936;-75
2023/06/21 05:37:03;;;;;;;7.37;6.67;;;20.10;99.90;;;;;;481641;245;28887;-77
2023/06/21 05:39:04;;;;;;;7.33;6.63;;;20.20;99.90;;;;;;481620;245;28912;-77
2023/06/21 05:41:06;;;;;;;7.50;6.80;;;20.20;99.90;;;;;;481595;245;28908;-76
2023/06/21 05:43:07;;;;;;;7.97;7.17;;;20.30;99.90;;;;;;481625;245;28838;-77
2023/06/21 05:45:08;;;;;;;8.87;7.57;;;20.20;99.90;;;;;;481627;245;28892;-77
2023/06/21 05:47:09;;;;;;;8.07;6.40;;;20.30;99.90;;;;;;481614;245;29346;-77
2023/06/21 05:49:11;;;;;;;9.40;7.10;;;20.30;99.90;;;;;;481578;245;29412;-76
2023/06/21 05:51:12;;;;;;;10.67;7.70;;;20.20;99.90;;;;;;481578;245;29400;-78
2023/06/21 05:53:13;;;;;;;7.87;7.07;;;20.20;99.90;;;;;;481600;245;28924;-77
2023/06/21 05:55:14;;;;;;;8.67;6.90;;;20.20;99.90;;;;;;481626;245;28880;-76
2023/06/21 05:57:16;;;;;;;6.67;6.13;;;20.30;99.90;;;;;;481568;246;28919;-77
2023/06/21 05:59:17;;;;;;;9.17;6.87;;;20.40;99.90;;;;;;481569;245;28862;-76
2023/06/21 06:01:18;;;;;;;8.70;7.43;;;20.40;99.90;;;;;;481560;245;28932;-77
2023/06/21 06:03:19;;;;;;;7.80;7.00;;;20.30;99.90;;;;;;481611;245;28890;-77
2023/06/21 06:05:21;;;;;;;10.00;7.33;;;20.40;99.90;;;;;;481608;245;28973;-76
2023/06/21 06:07:23;;;;;;;10.43;6.83;;;20.40;99.90;;;;;;481610;245;28909;-77
2023/06/21 06:09:23;;;;;;;7.73;6.60;;;20.30;99.90;;;;;;481532;245;29306;-76
2023/06/21 06:11:24;;;;;;;7.53;6.83;;;20.20;99.90;;;;;;481574;245;29416;-76
2023/06/21 06:13:26;;;;;;;11.20;7.63;;;20.30;99.90;;;;;;481591;245;29680;-76
2023/06/21 06:15:27;;;;;;;8.70;7.77;;;20.30;99.90;;;;;;481614;245;28859;-76
2023/06/21 06:17:28;;;;;;;6.93;6.23;;;20.20;99.90;;;;;;481602;245;28888;-77
2023/06/21 06:19:29;;;;;;;7.60;6.87;;;20.30;99.90;;;;;;485399;241;28763;-77
2023/06/21 06:21:31;;;;;;;8.60;7.60;;;20.30;99.90;;;;;;492009;241;28780;-77
2023/06/21 06:23:32;;;;;;;9.23;7.10;;;20.20;99.90;;;;;;491990;241;28857;-76
2023/06/21 06:25:33;;;;;;;9.50;7.27;;;20.30;99.90;;;;;;484608;241;28829;-76
2023/06/21 06:27:35;;;;;;;8.60;7.70;;;20.30;99.90;;;;;;481278;246;28875;-76
2023/06/21 06:29:36;;;;;;;11.00;7.27;;;20.20;99.90;;;;;;478960;246;28888;-76
2023/06/21 06:31:37;;;;;;;9.20;7.07;;;20.30;99.90;;;;;;479278;246;29467;-76
2023/06/21 06:33:38;;;;;;;8.97;7.50;;;20.30;99.90;;;;;;471330;241;29434;-77
2023/06/21 06:35:40;;;;;;;7.77;6.97;;;20.30;99.90;;;;;;466244;255;29379;-76
2023/06/21 06:37:41;;;;;;;10.47;7.83;;;20.30;99.90;;;;;;464843;255;29346;-76
2023/06/21 06:39:42;;;;;;;10.20;8.63;;;20.40;99.90;;;;;;464426;254;28815;-76
2023/06/21 06:41:43;;;;;;;8.37;7.30;;;20.40;99.90;;;;;;464292;250;28962;-76
2023/06/21 06:43:45;;;;;;;8.60;7.40;;;20.40;99.90;;;;;;464373;254;28853;-77
2023/06/21 06:45:46;;;;;;;8.70;7.83;;;20.50;99.90;;;;;;464453;252;28855;-77
2023/06/21 06:47:47;;;;;;;8.20;7.40;;;20.50;99.90;;;;;;464399;254;28983;-76
2023/06/21 06:49:48;;;;;;;7.63;6.93;;;20.60;99.90;;;;;;464457;254;28841;-77
2023/06/21 06:51:50;;;;;;;10.80;8.37;;;20.70;99.90;;;;;;464477;251;28895;-77
2023/06/21 06:53:51;;;;;;;8.87;7.97;;;20.70;99.90;;;;;;464409;254;29405;-77
2023/06/21 06:55:53;;;;;;;8.67;7.13;;;20.70;99.90;;;;;;464533;254;29586;-76
2023/06/21 06:57:53;;;;;;;8.07;7.27;;;20.70;99.90;;;;;;464461;255;29375;-78
2023/06/21 06:59:55;;;;;;;7.37;6.67;;;20.70;99.90;;;;;;464402;253;30177;-77
2023/06/21 07:01:56;;;;;;;7.00;6.30;;;20.70;99.90;;;;;;464223;255;28829;-76
2023/06/21 07:03:57;;;;;;;7.27;6.57;;;20.70;99.90;;;;;;490431;232;28811;-78
2023/06/21 07:05:59;;;;;;;9.60;7.60;;;20.70;99.90;;;;;;484777;244;29315;-77
2023/06/21 07:08:00;;;;;;;10.97;7.40;;;20.60;99.90;;;;;;484852;245;29358;-76
2023/06/21 07:10:01;;;;;;;7.63;6.67;;;20.40;99.90;;;;;;484872;245;29272;-76
2023/06/21 07:12:02;;;;;;;8.63;7.30;;;20.60;99.90;;;;;;484858;245;28751;-76
2023/06/21 07:14:06;;;;;;;8.20;6.63;;;20.50;99.90;;;;;;485700;238;28819;-77
2023/06/21 07:16:08;;;;;;;7.80;7.00;;;20.60;99.90;;;;;;486222;243;28944;-76
2023/06/21 07:18:09;;;;;;;12.50;7.10;;;20.70;99.90;;;;;;486207;243;28827;-76
2023/06/21 07:20:10;;;;;;;7.97;7.00;;;20.80;99.90;;;;;;486149;243;29063;-76
2023/06/21 07:24:32;;;;;;;8.47;7.50;;;20.80;99.90;;;;;;491759;239;29293;-76
2023/06/21 07:26:33;;;;;;;7.40;6.70;;;20.80;99.90;;;;;;491819;242;29421;-78
2023/06/21 07:28:34;;;;;;;6.83;6.07;;;20.90;99.90;;;;;;491825;240;29173;-78
2023/06/21 07:30:37;;;;;;;7.80;7.10;;;20.90;99.90;;;;;;491819;242;28733;-77
2023/06/21 07:32:37;;;;;;;8.10;6.33;;;21.00;99.90;;;;;;487958;242;28847;-76
2023/06/21 07:34:38;;;;;;;7.00;6.07;;;21.00;99.90;;;;;;473744;250;28817;-77
2023/06/21 07:36:39;;;;;;;6.20;5.70;;;21.00;99.90;;;;;;473806;250;28823;-78
2023/06/21 07:38:46;;;;;;;7.30;6.60;;;21.10;99.90;;;;;;473822;251;28786;-77
2023/06/21 07:40:42;;;;;;;7.00;6.30;;;21.10;99.90;;;;;;473637;250;28957;-77
2023/06/21 07:42:43;;;;;;;6.07;5.40;;;21.00;99.90;;;;;;473341;246;28959;-77
2023/06/21 07:44:45;;;;;;;7.40;5.60;;;21.00;99.90;;;;;;474134;249;28897;-77
2023/06/21 07:46:51;;;;;;;8.13;5.30;;;21.10;99.90;;;;;;476477;245;28885;-77
2023/06/21 07:48:47;;;;;;;7.40;6.70;;;21.10;99.90;;;;;;476134;245;29281;-77
2023/06/21 07:50:48;;;;;;;6.90;6.20;;;21.20;99.90;;;;;;478718;245;29409;-78
2023/06/21 07:52:49;;;;;;;7.60;5.50;;;21.20;99.90;;;;;;471536;249;29278;-77
2023/06/21 07:54:51;;;;;;;6.13;5.53;;;21.20;99.90;;;;;;471169;252;28922;-78
2023/06/21 07:56:52;;;;;;;6.40;5.80;;;21.30;99.90;;;;;;471314;251;28942;-78
2023/06/21 07:58:53;;;;;;;6.03;5.43;;;21.30;99.90;;;;;;471677;251;28887;-77
2023/06/21 08:00:54;;;;;;;8.23;5.80;;;21.30;99.90;;;;;;473062;249;28925;-77
2023/06/21 08:02:56;;;;;;;6.57;5.70;;;21.40;99.90;;;;;;476316;249;28926;-77
2023/06/21 08:04:57;;;;;;;6.20;5.37;;;21.60;99.90;;;;;;476638;245;29422;-78
2023/06/21 08:06:58;;;;;;;6.50;5.90;;;21.80;99.90;;;;;;476657;249;29418;-77
2023/06/21 08:08:59;;;;;;;6.83;5.80;;;22.00;99.90;;;;;;476813;249;29399;-77
2023/06/21 08:11:01;;;;;;;7.07;5.80;;;22.20;99.90;;;;;;476829;249;28994;-77
2023/06/21 08:13:02;;;;;;;7.93;6.03;;;22.20;99.90;;;;;;476864;249;28868;-77
2023/06/21 08:15:03;;;;;;;6.83;6.13;;;22.10;99.90;;;;;;476853;249;28994;-77
2023/06/21 08:17:04;;;;;;;9.13;6.40;;;22.10;99.90;;;;;;476887;249;28911;-78
2023/06/21 08:19:07;;;;;;;6.97;6.30;;;22.20;99.90;;;;;;476879;249;28881;-78
2023/06/21 08:21:08;;;;;;;6.80;6.10;;;22.30;99.90;;;;;;476826;249;28947;-77
2023/06/21 08:23:08;;;;;;;8.70;6.53;;;22.60;99.90;;;;;;476846;249;28896;-77
2023/06/21 08:25:10;;;;;;;7.30;6.10;;;22.70;99.90;;;;;;476871;249;28991;-77
2023/06/21 08:27:11;;;;;;;7.53;6.40;;;22.90;99.90;;;;;;476863;249;28991;-78
2023/06/21 08:29:12;;;;;;;9.73;7.10;;;23.10;99.90;;;;;;476841;249;29347;-77
2023/06/21 08:31:14;;;;;;;6.23;5.60;;;23.20;99.90;;;;;;476591;249;28953;-77
2023/06/21 08:33:15;;;;;;;6.60;6.00;;;23.40;99.90;;;;;;476773;249;28947;-77
2023/06/21 08:35:16;;;;;;;7.67;5.80;;;23.50;99.90;;;;;;476808;249;28998;-77
2023/06/21 08:37:21;;;;;;;6.10;5.60;;;23.20;99.90;;;;;;476863;249;28971;-77
2023/06/21 08:39:18;;;;;;;7.20;6.00;;;23.10;99.90;;;;;;476537;249;28895;-77
2023/06/21 08:41:20;;;;;;;14.53;5.90;;;23.30;99.90;;;;;;476792;249;28915;-77
2023/06/21 08:43:21;;;;;;;6.90;5.97;;;23.60;99.90;;;;;;476797;249;28983;-78
2023/06/21 08:45:22;;;;;;;8.07;6.50;;;23.40;99.90;;;;;;476829;249;29356;-77
2023/06/21 08:47:23;;;;;;;5.80;5.30;;;23.40;99.90;;;;;;476862;249;29491;-78
2023/06/21 08:49:25;;;;;;;8.53;6.03;;;23.50;99.90;;;;;;476826;249;29504;-77
2023/06/21 08:51:26;;;;;;;6.20;5.60;;;23.60;99.90;;;;;;476785;249;28925;-77
2023/06/21 08:53:27;;;;;;;8.60;5.47;;;23.60;99.90;;;;;;476821;249;28873;-78
2023/06/21 08:55:29;;;;;;;7.00;5.73;;;23.40;99.90;;;;;;475110;249;28783;-77
2023/06/21 08:57:30;;;;;;;8.13;5.60;;;23.40;99.90;;;;;;475035;250;28915;-78
2023/06/21 08:59:31;;;;;;;7.30;5.00;;;23.50;99.90;;;;;;475014;250;28811;-77
2023/06/21 09:01:32;;;;;;;5.90;5.30;;;23.50;99.90;;;;;;474999;250;28935;-77
2023/06/21 09:03:34;;;;;;;5.30;4.73;;;23.70;99.90;;;;;;475030;250;28870;-77
2023/06/21 09:05:35;;;;;;;6.10;5.53;;;23.90;99.90;;;;;;475029;250;28866;-77
2023/06/21 09:07:36;;;;;;;6.20;5.40;;;24.10;99.90;;;;;;475124;250;28899;-78
2023/06/21 09:09:37;;;;;;;6.17;5.57;;;24.10;99.90;;;;;;475085;250;28780;-77
2023/06/21 09:11:40;;;;;;;5.73;5.23;;;24.20;99.90;;;;;;474963;250;28846;-77
2023/06/21 09:13:40;;;;;;;6.20;5.60;;;24.10;99.90;;;;;;474908;250;29461;-77
2023/06/21 09:15:41;;;;;;;6.43;5.17;;;23.80;99.90;;;;;;475120;250;29297;-77
2023/06/21 09:17:42;;;;;;;7.00;6.30;;;23.70;99.90;;;;;;475058;250;29417;-77
2023/06/21 09:19:44;;;;;;;6.87;5.93;;;23.60;99.90;;;;;;474976;250;29411;-78
2023/06/21 09:21:45;;;;;;;8.70;6.17;;;23.60;99.90;;;;;;474894;250;28827;-78
2023/06/21 09:23:46;;;;;;;7.50;5.57;;;23.60;99.90;;;;;;475076;250;28884;-77
2023/06/21 09:25:48;;;;;;;7.70;5.43;;;23.70;99.90;;;;;;475111;250;28789;-77
2023/06/21 09:27:49;;;;;;;6.43;5.73;;;23.90;99.90;;;;;;474731;250;28779;-78
2023/06/21 09:29:50;;;;;;;6.20;5.30;;;24.10;99.90;;;;;;474964;250;28792;-77
2023/06/21 09:31:51;;;;;;;6.13;5.53;;;24.10;99.90;;;;;;475034;250;29411;-78
2023/06/21 09:33:52;;;;;;;5.87;5.27;;;24.10;99.90;;;;;;475673;246;37028;-79
2023/06/21 09:35:56;;;;;;;5.60;5.10;;;24.20;99.90;;;;;;476706;249;29503;-76
2023/06/21 09:37:55;;;;;;;6.50;5.50;;;24.20;99.90;;;;;;478699;246;28866;-77
2023/06/21 09:39:56;;;;;;;6.27;5.53;;;24.10;99.90;;;;;;482219;246;28814;-76
2023/06/21 09:41:57;;;;;;;8.27;7.03;;;24.10;99.90;;;;;;482304;246;28783;-77
2023/06/21 09:43:59;;;;;;;7.43;6.50;;;24.20;99.90;;;;;;482164;246;28777;-78
2023/06/21 09:46:00;;;;;;;6.63;5.97;;;24.20;99.90;;;;;;482073;246;28849;-77
2023/06/21 09:48:01;;;;;;;11.00;6.23;;;24.30;99.90;;;;;;482333;246;28902;-78
2023/06/21 09:50:02;;;;;;;6.43;5.40;;;24.20;99.90;;;;;;482301;246;28760;-76
2023/06/21 09:52:04;;;;;;;7.47;5.60;;;24.10;99.90;;;;;;482280;246;28818;-77
2023/06/21 09:54:05;;;;;;;8.83;5.50;;;24.30;99.90;;;;;;482178;246;28868;-77
2023/06/21 09:56:06;;;;;;;6.13;5.53;;;24.50;99.90;;;;;;482285;246;29357;-77
2023/06/21 09:58:07;;;;;;;5.90;5.10;;;24.80;99.90;;;;;;482294;246;28872;-78
2023/06/21 10:00:12;;;;;;;5.80;5.20;;;25.10;99.90;;;;;;475066;246;28727;-77
2023/06/21 10:04:31;;;;;;;5.80;4.87;;;25.40;99.90;;;;;;467000;250;28825;-76
2023/06/21 10:06:32;;;;;;;6.20;5.30;;;25.20;99.90;;;;;;467081;254;28882;-76
2023/06/21 10:08:36;;;;;;;6.10;4.87;;;25.10;99.90;;;;;;467502;253;28981;-78
2023/06/21 10:10:35;;;;;;;5.67;4.47;;;25.00;99.90;;;;;;468076;253;29417;-77
2023/06/21 10:12:36;;;;;;;27.67;5.10;;;25.00;99.90;;;;;;470728;240;28863;-77
2023/06/21 10:14:37;;;;;;;5.40;4.57;;;25.10;99.90;;;;;;502085;237;28512;-77
2023/06/21 10:16:38;;;;;;;5.50;4.77;;;24.90;99.90;;;;;;502084;237;28516;-77
2023/06/21 10:18:40;;;;;;;5.20;4.70;;;24.80;99.90;;;;;;502084;237;28624;-77
2023/06/21 10:20:41;;;;;;;6.20;5.60;;;24.70;99.90;;;;;;498426;236;28752;-77
2023/06/21 10:22:43;;;;;;;6.40;5.30;;;24.60;99.90;;;;;;474899;244;29035;-77
2023/06/21 10:24:44;;;;;;;5.63;5.13;;;24.50;99.90;;;;;;471774;252;30039;-77
2023/06/21 10:26:45;;;;;;;6.10;5.00;;;24.40;99.90;;;;;;452730;261;29413;-76
2023/06/21 10:28:49;;;;;;;6.70;5.20;;;24.40;99.90;;;;;;452791;261;29518;-77
2023/06/21 10:30:47;;;;;;;7.80;5.57;;;24.40;99.90;;;;;;452568;262;29400;-77
2023/06/21 10:32:52;;;;;;;6.10;5.30;;;24.50;99.90;;;;;;458316;240;29385;-77
2023/06/21 10:34:50;;;;;;;5.60;5.00;;;24.80;99.90;;;;;;467555;254;28857;-79
2023/06/21 10:36:51;;;;;;;7.53;5.77;;;24.90;99.90;;;;;;466067;255;29427;-78
2023/06/21 10:38:53;;;;;;;5.27;4.77;;;24.80;99.90;;;;;;467816;254;28881;-77
2023/06/21 10:40:54;;;;;;;6.77;5.00;;;24.70;99.90;;;;;;466047;252;28903;-77
2023/06/21 10:42:58;;;;;;;5.40;4.90;;;24.60;99.90;;;;;;470246;240;28800;-76